Time;durP1;ratioP1;P1;durP2;ratioP2;P2;SDS_P1;SDS_P2;PMS_P1;PMS_P2;Temp;Humidity;BMP_temperature;BMP_pressure;BME280_temperature;BME280_humidity;BME280_pressure;Samples;Min_cycle;Max_cycle;Signal;HPM_P1;HPM_P2
2021/12/25 00:01:18;;;;;;;12.00;10.70;;;;;;;5.25;100.00;100563.28;5095174;28;20040;-36
2021/12/25 00:03:44;;;;;;;13.07;10.52;;;;;;;5.22;100.00;100553.81;5095249;28;20476;-36
2021/12/25 00:06:09;;;;;;;10.87;9.37;;;;;;;5.27;100.00;100559.38;5095091;28;20028;-35
2021/12/25 00:08:35;;;;;;;12.60;10.43;;;;;;;5.20;100.00;100555.84;5094756;28;20031;-35
2021/12/25 00:11:02;;;;;;;11.40;10.20;;;;;;;5.24;100.00;100557.09;5095477;28;20182;-35
2021/12/25 00:13:27;;;;;;;11.73;9.75;;;;;;;5.23;100.00;100555.47;5094039;28;20032;-35
2021/12/25 00:15:53;;;;;;;10.43;9.10;;;;;;;5.26;100.00;100546.16;5095641;28;20038;-35
2021/12/25 00:18:20;;;;;;;10.73;9.60;;;;;;;5.19;100.00;100539.97;5095068;28;20016;-35
2021/12/25 00:20:46;;;;;;;11.93;10.10;;;;;;;5.20;100.00;100542.44;5094782;28;20032;-36
2021/12/25 00:23:12;;;;;;;12.82;10.70;;;;;;;5.04;100.00;100534.78;5095058;28;20059;-36
2021/12/25 00:25:43;;;;;;;11.77;9.70;;;;;;;5.13;100.00;100541.63;5094927;28;20101;-35
2021/12/25 00:31:04;;;;;;;11.95;9.82;;;;;;;5.11;100.00;100543.66;5094599;28;20487;-36
2021/12/25 00:35:57;;;;;;;11.63;9.93;;;;;;;5.12;100.00;100545.31;5095294;28;20043;-35
2021/12/25 00:38:23;;;;;;;11.33;9.67;;;;;;;5.13;100.00;100549.66;5094438;28;20024;-35
2021/12/25 00:40:48;;;;;;;12.30;10.10;;;;;;;5.08;100.00;100536.88;5094989;28;20024;-35
2021/12/25 00:43:13;;;;;;;12.50;10.53;;;;;;;5.02;100.00;100531.47;5094422;28;20153;-35
2021/12/25 00:45:39;;;;;;;12.27;10.87;;;;;;;5.11;100.00;100528.41;5094585;28;20412;-35
2021/12/25 00:48:05;;;;;;;11.70;9.87;;;;;;;5.05;100.00;100544.47;5094226;28;20073;-35
2021/12/25 00:50:30;;;;;;;12.65;10.23;;;;;;;4.85;100.00;100517.63;5094731;28;20020;-35
2021/12/25 00:52:55;;;;;;;11.07;9.83;;;;;;;4.99;100.00;100547.97;5094202;28;20024;-35
2021/12/25 00:55:20;;;;;;;11.80;10.07;;;;;;;5.00;100.00;100545.09;5094413;28;20356;-35
2021/12/25 00:57:46;;;;;;;11.80;10.13;;;;;;;5.01;100.00;100540.53;5094871;28;20035;-35
2021/12/25 01:00:13;;;;;;;10.73;8.90;;;;;;;5.01;100.00;100543.22;5093737;28;20055;-35
2021/12/25 01:02:41;;;;;;;10.20;9.05;;;;;;;4.89;100.00;100543.00;5093892;28;20035;-35
2021/12/25 01:05:08;;;;;;;10.63;8.43;;;;;;;4.79;100.00;100524.63;5094145;28;20036;-35
2021/12/25 01:07:34;;;;;;;10.48;8.63;;;;;;;4.87;100.00;100545.03;5093569;28;20449;-35
2021/12/25 01:10:03;;;;;;;14.65;10.63;;;;;;;4.75;100.00;100536.75;5094789;28;20054;-35
2021/12/25 01:12:35;;;;;;;11.45;10.02;;;;;;;4.74;100.00;100543.16;5093692;28;20531;-35
2021/12/25 01:15:03;;;;;;;11.55;9.98;;;;;;;4.77;100.00;100542.72;5093935;28;20028;-35
2021/12/25 01:28:35;;;;;;;14.82;11.50;;;;;;;4.80;100.00;100550.38;5093553;28;20036;-35
2021/12/25 01:30:52;;;;;;;14.57;11.65;;;;;;;4.76;100.00;100546.44;5093110;28;20476;-35
2021/12/25 01:49:35;;;;;;;18.52;15.10;;;;;;;4.61;100.00;100524.34;5070580;28;20056;-35
2021/12/25 01:52:02;;;;;;;19.73;15.88;;;;;;;4.84;100.00;100556.16;5070674;28;20107;-35
2021/12/25 01:54:27;;;;;;;19.23;15.68;;;;;;;4.80;100.00;100550.38;5071194;28;20036;-35
2021/12/25 01:56:53;;;;;;;19.13;15.87;;;;;;;4.74;100.00;100551.19;5071172;28;20029;-35
2021/12/25 01:59:18;;;;;;;19.87;16.50;;;;;;;4.71;100.00;100540.84;5071042;28;20035;-35
2021/12/25 02:01:44;;;;;;;22.17;17.57;;;;;;;4.69;100.00;100550.94;5070537;28;20036;-35
2021/12/25 02:04:10;;;;;;;18.77;15.97;;;;;;;4.62;100.00;100532.16;5070455;28;20518;-35
2021/12/25 02:06:36;;;;;;;23.40;18.67;;;;;;;4.69;100.00;100537.56;5071118;28;20119;-35
2021/12/25 02:09:02;;;;;;;20.63;16.45;;;;;;;4.58;100.00;100522.03;5070456;28;20590;-35
2021/12/25 02:11:27;;;;;;;21.13;17.10;;;;;;;4.60;100.00;100530.72;5071363;28;20218;-35
2021/12/25 02:13:53;;;;;;;19.13;16.47;;;;;;;4.58;100.00;100530.91;5074677;28;20099;-36
2021/12/25 02:16:22;;;;;;;19.07;15.77;;;;;;;4.58;100.00;100548.81;5074818;28;20154;-36
2021/12/25 02:21:22;;;;;;;20.00;15.25;;;;;;;4.61;100.00;100545.75;5074491;28;20496;-35
2021/12/25 02:23:49;;;;;;;18.85;16.00;;;;;;;4.59;100.00;100542.47;5074758;28;20032;-35
2021/12/25 02:26:14;;;;;;;;;;;;;;;4.63;100.00;100549.88;5095803;28;20173;-35
2021/12/25 02:28:40;;;;;;;16.95;13.63;;;;;;;4.29;100.00;100523.97;5097679;28;19953;-35
2021/12/25 02:31:10;;;;;;;17.83;13.53;;;;;;;4.30;100.00;100535.53;5097546;28;20401;-35
2021/12/25 02:33:35;;;;;;;17.95;14.50;;;;;;;4.21;100.00;100550.06;5096706;28;20039;-35
2021/12/25 02:36:03;;;;;;;15.15;13.02;;;;;;;4.22;100.00;100544.53;5096718;28;20028;-35
2021/12/25 02:38:29;;;;;;;14.55;12.18;;;;;;;4.11;100.00;100553.94;5097481;28;20397;-35
2021/12/25 02:40:55;;;;;;;11.57;10.10;;;;;;;4.15;100.00;100546.34;5096487;28;20067;-35
2021/12/25 02:43:21;;;;;;;11.90;10.57;;;;;;;4.11;100.00;100551.25;5096826;28;20051;-35
2021/12/25 02:45:47;;;;;;;14.88;11.98;;;;;;;4.00;100.00;100550.94;5096390;28;20040;-35
2021/12/25 02:48:16;;;;;;;15.88;11.52;;;;;;;3.81;100.00;100552.47;5096186;28;20365;-35
2021/12/25 02:50:43;;;;;;;15.45;12.05;;;;;;;3.84;100.00;100566.28;5097141;28;20051;-35
2021/12/25 02:53:10;;;;;;;15.65;12.77;;;;;;;3.79;100.00;100555.31;5096341;28;20030;-35
2021/12/25 02:55:37;;;;;;;16.17;12.57;;;;;;;3.77;100.00;100556.56;5096974;28;20023;-35
2021/12/25 02:58:04;;;;;;;17.08;13.50;;;;;;;3.67;100.00;100554.22;5096144;28;20024;-35
2021/12/25 03:00:32;;;;;;;;;;;;;;;3.61;100.00;100557.63;5096415;28;20099;-36
2021/12/25 03:03:00;;;;;;;16.48;12.70;;;;;;;3.66;100.00;100552.56;5096411;28;19908;-36
2021/12/25 03:05:26;;;;;;;19.20;14.13;;;;;;;3.57;100.00;100567.09;5096292;28;20040;-36
2021/12/25 03:07:51;;;;;;;17.75;13.27;;;;;;;3.57;100.00;100569.75;5096115;28;20077;-36
2021/12/25 03:10:18;;;;;;;20.27;13.43;;;;;;;3.48;100.00;100554.84;5096282;28;20051;-36
2021/12/25 03:12:52;;;;;;;17.38;12.15;;;;;;;3.56;100.00;100566.25;5095968;28;20077;-35
2021/12/25 03:15:28;;;;;;;18.35;13.30;;;;;;;3.47;100.00;100574.59;5096553;28;20032;-35
2021/12/25 03:17:55;;;;;;;17.65;12.70;;;;;;;3.46;100.00;100579.09;5095523;28;20035;-35
2021/12/25 03:20:20;;;;;;;17.00;13.55;;;;;;;3.46;100.00;100578.28;5096446;28;20024;-36
2021/12/25 03:22:46;;;;;;;17.45;13.27;;;;;;;3.44;100.00;100558.94;5093922;28;20164;-36
2021/12/25 03:25:13;;;;;;;15.83;12.73;;;;;;;3.45;100.00;100561.41;5095622;28;20178;-36
2021/12/25 03:27:40;;;;;;;16.55;13.18;;;;;;;3.51;100.00;100579.34;5095839;28;20034;-36
2021/12/25 03:30:09;;;;;;;19.67;13.80;;;;;;;3.46;100.00;100581.75;5095525;28;20028;-36
2021/12/25 03:32:34;;;;;;;16.48;13.63;;;;;;;3.34;100.00;100586.81;5095382;28;20395;-35
2021/12/25 03:35:00;;;;;;;17.40;13.77;;;;;;;3.26;100.00;100588.75;5095544;28;20036;-35
2021/12/25 03:37:25;;;;;;;16.30;14.13;;;;;;;3.23;100.00;100594.50;5095494;28;20032;-35
2021/12/25 03:39:51;;;;;;;17.83;15.52;;;;;;;3.08;100.00;100597.22;5095420;28;20028;-35
2021/12/25 03:42:18;;;;;;;19.88;15.23;;;;;;;3.09;100.00;100590.84;5095311;28;20032;-35
2021/12/25 03:44:43;;;;;;;19.85;15.27;;;;;;;2.79;100.00;100566.88;5095173;28;20031;-35
2021/12/25 03:47:23;;;;;;;18.03;14.43;;;;;;;2.94;100.00;100603.41;5095246;28;20020;-37
2021/12/25 03:58:06;;;;;;;18.73;15.38;;;;;;;2.82;100.00;100606.53;5095053;28;20093;-36
2021/12/25 04:00:33;;;;;;;20.58;16.40;;;;;;;2.90;100.00;100602.13;5095732;28;20028;-36
2021/12/25 04:03:07;;;;;;;21.00;16.45;;;;;;;2.82;100.00;100613.72;5095110;28;20028;-36
2021/12/25 04:05:35;;;;;;;19.92;17.17;;;;;;;2.71;100.00;100606.19;5094531;28;20082;-36
2021/12/25 04:08:08;;;;;;;18.65;15.27;;;;;;;2.68;100.00;100596.69;5095097;28;20032;-36
2021/12/25 04:10:40;;;;;;;21.20;17.05;;;;;;;2.62;100.00;100599.28;5095268;28;20086;-36
2021/12/25 04:13:08;;;;;;;20.45;17.23;;;;;;;2.72;100.00;100619.34;5094855;28;20020;-36
2021/12/25 04:15:34;;;;;;;19.02;16.52;;;;;;;2.60;100.00;100622.69;5094481;28;20479;-36
2021/12/25 04:18:00;;;;;;;20.45;17.08;;;;;;;2.53;100.00;100611.91;5093353;28;20066;-36
2021/12/25 04:20:27;;;;;;;23.55;18.65;;;;;;;2.42;100.00;100617.69;5094907;28;20024;-36
2021/12/25 04:23:05;;;;;;;20.80;18.33;;;;;;;2.47;100.00;100629.47;5094236;28;20020;-36
2021/12/25 04:25:33;;;;;;;19.83;16.08;;;;;;;2.46;100.00;100627.00;5094979;28;20028;-36
2021/12/25 04:28:16;;;;;;;22.05;18.05;;;;;;;2.47;100.00;100628.66;5094406;28;20032;-36
2021/12/25 05:05:30;;;;;;;19.87;16.93;;;;;;;2.02;100.00;100678.44;5071660;28;20036;-36
2021/12/25 05:07:55;;;;;;;;;;;;;;;2.03;100.00;100670.25;5071620;28;20036;-36
2021/12/25 05:10:21;;;;;;;20.03;16.97;;;;;;;1.91;100.00;100661.03;5071070;28;20296;-36
2021/12/25 05:12:46;;;;;;;21.97;17.90;;;;;;;1.88;100.00;100679.22;5070912;28;20377;-36
2021/12/25 05:15:12;;;;;;;21.10;18.00;;;;;;;1.62;100.00;100637.75;5071244;28;20082;-36
2021/12/25 05:17:37;;;;;;;21.70;17.17;;;;;;;1.84;100.00;100676.06;5070923;28;20285;-36
2021/12/25 05:20:04;;;;;;;22.93;18.30;;;;;;;1.85;100.00;100674.22;5078910;28;20614;-36
2021/12/25 05:22:29;;;;;;;20.83;16.90;;;;;;;1.91;100.00;100678.88;5093986;28;20030;-36
2021/12/25 05:24:55;;;;;;;20.35;16.08;;;;;;;1.94;100.00;100683.81;5093384;28;20489;-36
2021/12/25 05:27:20;;;;;;;23.40;17.85;;;;;;;2.03;100.00;100677.44;5094278;28;20073;-36
2021/12/25 05:29:46;;;;;;;20.57;16.43;;;;;;;2.02;100.00;100681.09;5093911;28;20050;-36
2021/12/25 05:32:16;;;;;;;;;;;;;;;2.10;100.00;100688.19;5094587;28;20028;-36
2021/12/25 05:34:41;;;;;;;18.17;14.82;;;;;;;1.95;100.00;100683.66;5093419;28;19908;-36
2021/12/25 05:37:07;;;;;;;22.38;17.05;;;;;;;1.95;100.00;100705.00;5092985;28;20024;-36
2021/12/25 05:39:33;;;;;;;19.03;15.87;;;;;;;1.88;100.00;100706.72;5093930;28;20066;-36
2021/12/25 05:41:59;;;;;;;18.10;15.20;;;;;;;1.86;100.00;100698.06;5093395;28;20150;-36
2021/12/25 05:44:25;;;;;;;19.02;15.88;;;;;;;1.83;100.00;100700.25;5093178;28;20205;-36
2021/12/25 05:46:51;;;;;;;17.95;15.18;;;;;;;1.72;100.00;100707.66;5092746;28;20535;-36
2021/12/25 05:49:16;;;;;;;20.17;17.25;;;;;;;1.39;100.00;100668.88;5093288;28;20104;-36
2021/12/25 05:51:41;;;;;;;17.33;14.17;;;;;;;1.60;100.00;100709.06;5093098;28;20063;-36
2021/12/25 05:54:07;;;;;;;19.33;15.93;;;;;;;1.48;100.00;100713.13;5092860;28;20046;-36
2021/12/25 05:56:32;;;;;;;19.00;15.73;;;;;;;1.33;100.00;100685.56;5092713;28;20024;-36
2021/12/25 05:58:57;;;;;;;17.47;14.87;;;;;;;1.41;100.00;100717.47;5093562;28;20493;-36
2021/12/25 06:01:23;;;;;;;20.57;15.20;;;;;;;1.40;100.00;100713.16;5093006;28;20032;-36
2021/12/25 06:03:49;;;;;;;20.10;15.10;;;;;;;1.33;100.00;100702.38;5093741;28;20118;-36
2021/12/25 06:06:14;;;;;;;17.92;14.75;;;;;;;1.46;100.00;100710.63;5092936;28;20423;-36
2021/12/25 06:08:39;;;;;;;17.50;14.70;;;;;;;1.52;100.00;100722.44;5092960;28;20036;-36
2021/12/25 06:11:05;;;;;;;21.43;16.57;;;;;;;1.50;100.00;100727.09;5093127;28;20047;-36
2021/12/25 06:13:31;;;;;;;21.77;17.17;;;;;;;1.20;100.00;100686.13;5093066;28;20480;-36
2021/12/25 06:15:57;;;;;;;20.58;16.67;;;;;;;1.40;100.00;100715.84;5093691;28;20430;-36
2021/12/25 06:18:23;;;;;;;23.70;18.83;;;;;;;1.33;100.00;100726.38;5093215;28;20105;-36
2021/12/25 06:20:48;;;;;;;22.58;17.15;;;;;;;1.24;100.00;100693.59;5092957;28;20103;-36
2021/12/25 06:23:14;;;;;;;23.33;17.93;;;;;;;1.36;100.00;100734.00;5093445;28;20032;-36
2021/12/25 06:25:39;;;;;;;22.20;17.80;;;;;;;1.36;100.00;100727.84;5092823;28;20178;-36
2021/12/25 06:28:05;;;;;;;24.00;18.77;;;;;;;1.18;100.00;100728.94;5092825;28;20456;-36
2021/12/25 06:30:30;;;;;;;21.67;16.60;;;;;;;1.24;100.00;100736.22;5093390;28;20020;-36
2021/12/25 06:32:56;;;;;;;20.13;15.80;;;;;;;1.28;100.00;100745.53;5093079;28;20087;-36
2021/12/25 06:35:21;;;;;;;24.53;17.60;;;;;;;1.26;100.00;100733.38;5093254;28;20032;-36
2021/12/25 06:37:47;;;;;;;22.00;16.07;;;;;;;1.27;100.00;100735.06;5092981;28;20032;-36
2021/12/25 06:40:19;;;;;;;22.30;16.88;;;;;;;1.28;100.00;100737.53;5092527;28;20024;-36
2021/12/25 06:42:46;;;;;;;20.05;15.85;;;;;;;1.17;100.00;100723.75;5092728;28;20076;-36
2021/12/25 06:45:12;;;;;;;21.08;15.52;;;;;;;1.16;100.00;100741.56;5093085;28;20035;-36
2021/12/25 06:47:38;;;;;;;18.83;15.60;;;;;;;1.20;100.00;100750.88;5092592;28;20066;-36
2021/12/25 06:50:07;;;;;;;18.48;14.07;;;;;;;1.17;100.00;100745.91;5093040;28;20452;-36
2021/12/25 06:52:33;;;;;;;20.42;15.18;;;;;;;1.26;100.00;100750.19;5092571;28;20392;-36
2021/12/25 06:54:58;;;;;;;19.85;14.65;;;;;;;1.22;100.00;100762.22;5092588;28;20139;-36
2021/12/25 06:57:24;;;;;;;17.77;14.97;;;;;;;1.11;100.00;100759.91;5093281;28;20361;-36
2021/12/25 06:59:49;;;;;;;15.10;13.37;;;;;;;1.12;100.00;100753.56;5096858;28;20047;-36
2021/12/25 07:02:15;;;;;;;17.83;13.77;;;;;;;1.04;100.00;100748.28;5096268;28;20059;-36
2021/12/25 07:04:40;;;;;;;18.88;14.13;;;;;;;1.03;100.00;100759.94;5096141;28;20020;-36
2021/12/25 07:07:06;;;;;;;15.35;12.80;;;;;;;1.03;100.00;100752.78;5096109;28;20024;-36
2021/12/25 07:09:31;;;;;;;19.20;13.30;;;;;;;0.93;100.00;100761.97;5096285;28;20052;-36
2021/12/25 07:11:57;;;;;;;14.50;12.33;;;;;;;0.95;100.00;100771.44;5096702;28;20035;-36
2021/12/25 07:14:23;;;;;;;17.20;13.18;;;;;;;0.92;100.00;100781.59;5096241;28;20142;-36
2021/12/25 07:16:49;;;;;;;12.68;10.50;;;;;;;0.87;100.00;100778.59;5096205;28;20036;-36
2021/12/25 07:19:15;;;;;;;12.75;10.02;;;;;;;0.70;100.00;100783.97;5096659;28;20032;-36
2021/12/25 07:21:42;;;;;;;15.05;10.82;;;;;;;0.68;100.00;100795.75;5096266;28;20024;-36
2021/12/25 07:24:09;;;;;;;11.27;8.77;;;;;;;0.47;100.00;100781.13;5095945;28;20024;-36
2021/12/25 07:26:35;;;;;;;13.82;9.00;;;;;;;0.48;100.00;100784.63;5095547;28;20029;-36
2021/12/25 07:29:00;;;;;;;12.90;9.02;;;;;;;0.45;100.00;100800.94;5096125;28;20130;-36
2021/12/25 07:31:26;;;;;;;12.17;8.53;;;;;;;0.52;100.00;100799.25;5095345;28;20024;-36
2021/12/25 07:33:51;;;;;;;10.40;7.33;;;;;;;0.50;100.00;100806.59;5095338;28;20039;-36
2021/12/25 07:36:17;;;;;;;8.67;6.93;;;;;;;0.42;100.00;100804.75;5096032;28;20042;-36
2021/12/25 07:38:42;;;;;;;8.05;6.18;;;;;;;0.45;100.00;100808.91;5095711;28;20080;-36
2021/12/25 07:41:07;;;;;;;7.97;6.73;;;;;;;0.45;100.00;100803.59;5095455;28;20081;-36
2021/12/25 07:43:33;;;;;;;8.13;6.90;;;;;;;0.45;100.00;100811.59;5095680;28;20031;-36
2021/12/25 07:45:58;;;;;;;7.97;6.03;;;;;;;0.46;100.00;100813.25;5095766;28;20028;-36
2021/12/25 07:48:27;;;;;;;7.30;5.87;;;;;;;0.38;100.00;100807.91;5094811;28;20020;-36
2021/12/25 07:50:53;;;;;;;8.25;6.18;;;;;;;0.36;100.00;100820.56;5094883;28;20020;-36
2021/12/25 07:53:18;;;;;;;7.10;5.57;;;;;;;0.43;100.00;100808.25;5095307;28;20068;-36
2021/12/25 07:55:47;;;;;;;6.43;5.72;;;;;;;0.47;100.00;100817.56;5095297;28;20494;-36
2021/12/25 07:58:13;;;;;;;10.48;6.47;;;;;;;0.28;99.88;100824.03;5094757;28;20027;-36
2021/12/25 08:00:38;;;;;;;7.72;6.50;;;;;;;0.30;100.00;100823.88;5093534;28;20044;-36
2021/12/25 08:03:04;;;;;;;8.43;6.43;;;;;;;0.17;100.00;100819.84;5095499;28;20020;-36
2021/12/25 08:05:29;;;;;;;8.27;6.00;;;;;;;0.24;100.00;100820.03;5095460;28;20036;-36
2021/12/25 08:07:55;;;;;;;7.37;6.57;;;;;;;0.08;99.15;100828.81;5094925;28;20388;-36
2021/12/25 08:10:21;;;;;;;9.33;6.87;;;;;;;0.13;99.10;100836.31;5095125;28;20047;-36
2021/12/25 08:12:55;;;;;;;9.20;6.70;;;;;;;0.19;99.54;100835.63;5095261;28;20032;-36
2021/12/25 08:15:26;;;;;;;10.43;7.28;;;;;;;0.11;98.87;100835.66;5094826;28;20035;-36
2021/12/25 08:17:54;;;;;;;7.97;6.20;;;;;;;0.06;99.31;100841.44;5094583;28;20032;-36
2021/12/25 08:20:19;;;;;;;8.02;6.50;;;;;;;0.15;99.51;100837.81;5095331;28;20138;-36
2021/12/25 08:22:45;;;;;;;8.53;6.53;;;;;;;0.21;99.39;100841.66;5093000;28;20068;-36
2021/12/25 08:25:13;;;;;;;8.00;6.30;;;;;;;0.12;99.16;100830.16;5094990;28;20081;-36
2021/12/25 08:27:39;;;;;;;7.78;6.65;;;;;;;-0.05;99.40;100834.63;5094224;28;20039;-36
2021/12/25 08:30:08;;;;;;;8.68;7.20;;;;;;;-0.08;98.73;100850.06;5094269;28;20031;-36
2021/12/25 08:32:34;;;;;;;7.28;6.30;;;;;;;0.12;99.36;100863.91;5094258;28;20024;-36
2021/12/25 08:35:00;;;;;;;7.45;6.63;;;;;;;0.09;98.84;100866.88;5094787;28;20028;-36
2021/12/25 08:37:26;;;;;;;8.80;7.10;;;;;;;0.03;98.05;100870.19;5094227;28;20024;-36
2021/12/25 08:39:53;;;;;;;7.97;6.78;;;;;;;-0.17;97.77;100851.84;5094254;28;20024;-36
2021/12/25 08:42:18;;;;;;;9.95;6.97;;;;;;;-0.12;98.04;100869.97;5093969;28;20032;-36
2021/12/25 08:45:04;;;;;;;7.93;6.75;;;;;;;-0.05;98.31;100868.31;5094591;28;20414;-36
2021/12/25 08:47:36;;;;;;;9.00;6.93;;;;;;;-0.04;98.15;100875.31;5093846;28;20461;-36
2021/12/25 08:50:09;;;;;;;8.30;6.80;;;;;;;-0.09;98.28;100880.28;5094079;28;20157;-36
2021/12/25 08:52:35;;;;;;;7.50;6.47;;;;;;;-0.12;97.76;100892.06;5094260;28;20459;-36
2021/12/25 08:55:00;;;;;;;8.23;6.88;;;;;;;-0.28;97.44;100870.75;5094312;28;20143;-36
2021/12/25 08:57:26;;;;;;;9.30;7.67;;;;;;;-0.26;97.75;100866.09;5094390;28;20036;-36
2021/12/25 08:59:54;;;;;;;10.00;6.97;;;;;;;-0.17;96.98;100878.41;5094520;28;20024;-36
2021/12/25 09:02:21;;;;;;;7.95;6.75;;;;;;;-0.21;97.45;100895.69;5094207;28;20119;-36
2021/12/25 09:04:48;;;;;;;7.63;6.82;;;;;;;-0.23;97.55;100888.88;5093659;28;20020;-36
2021/12/25 09:07:14;;;;;;;8.52;6.88;;;;;;;-0.20;97.54;100904.47;5093788;28;20028;-36
2021/12/25 09:09:41;;;;;;;7.05;5.57;;;;;;;-0.23;97.59;100900.31;5093475;28;20071;-36
2021/12/25 09:12:14;;;;;;;8.77;6.65;;;;;;;-0.35;96.38;100890.94;5094280;28;20068;-36
2021/12/25 09:14:40;;;;;;;7.95;6.20;;;;;;;-0.31;97.05;100901.09;5093994;28;20028;-36
2021/12/25 09:17:08;;;;;;;8.70;6.70;;;;;;;-0.27;96.66;100915.75;5093735;28;20442;-36
2021/12/25 09:19:34;;;;;;;7.18;6.20;;;;;;;-0.48;96.10;100912.66;5093957;28;20123;-36
2021/12/25 09:21:59;;;;;;;7.07;6.28;;;;;;;-0.36;96.48;100915.88;5093188;28;20128;-36
2021/12/25 09:24:25;;;;;;;9.13;6.43;;;;;;;-0.37;96.87;100909.72;5093422;28;20024;-36
2021/12/25 09:26:50;;;;;;;8.70;7.03;;;;;;;-0.46;97.83;100889.41;5093483;28;20476;-36
2021/12/25 09:29:16;;;;;;;8.53;6.70;;;;;;;-0.48;97.36;100899.38;5093631;28;20052;-36
2021/12/25 09:31:41;;;;;;;9.87;7.97;;;;;;;-0.45;97.24;100895.56;5093517;28;20027;-36
2021/12/25 09:34:06;;;;;;;8.07;6.97;;;;;;;-0.53;97.04;100891.88;5094105;28;20035;-36
2021/12/25 09:36:32;;;;;;;7.67;6.30;;;;;;;-0.34;96.98;100898.78;5093217;28;20089;-36
2021/12/25 09:38:58;;;;;;;10.10;7.30;;;;;;;-0.31;96.82;100901.09;5093383;28;20456;-36
2021/12/25 09:41:23;;;;;;;10.10;7.15;;;;;;;-0.30;97.08;100902.78;5093398;28;20077;-36
2021/12/25 09:43:49;;;;;;;10.77;7.07;;;;;;;-0.35;96.82;100905.06;5093335;28;20028;-36
2021/12/25 09:46:16;;;;;;;8.55;6.70;;;;;;;-0.49;96.98;100910.97;5093300;28;20456;-36
2021/12/25 09:48:41;;;;;;;9.35;7.03;;;;;;;-0.63;97.49;100893.81;5093599;28;20040;-36
2021/12/25 09:51:07;;;;;;;11.93;8.73;;;;;;;-0.62;97.56;100897.31;5093859;28;20467;-36
2021/12/25 09:53:33;;;;;;;9.77;7.10;;;;;;;-0.55;97.66;100907.13;5093287;28;20028;-36
2021/12/25 09:56:01;;;;;;;7.47;6.40;;;;;;;-0.68;96.82;100901.41;5093335;28;20021;-36
2021/12/25 09:58:27;;;;;;;8.38;7.18;;;;;;;-0.55;97.13;100900.97;5093230;28;20114;-36
2021/12/25 10:00:53;;;;;;;9.00;7.50;;;;;;;-0.57;96.25;100908.28;5092945;28;20028;-36
2021/12/25 10:03:20;;;;;;;8.02;6.85;;;;;;;-0.55;96.83;100922.22;5092872;28;20024;-36
2021/12/25 10:05:48;;;;;;;8.23;6.88;;;;;;;-0.56;96.50;100901.97;5093094;28;20024;-36
2021/12/25 10:08:19;;;;;;;8.90;7.00;;;;;;;-0.42;96.56;100929.78;5093098;28;20039;-36
2021/12/25 10:10:59;;;;;;;8.40;6.60;;;;;;;-0.42;95.80;100930.63;5094106;28;20050;-36
2021/12/25 10:13:24;;;;;;;8.25;6.70;;;;;;;-0.64;95.46;100936.44;5093110;28;20059;-36
2021/12/25 10:15:52;;;;;;;8.77;6.70;;;;;;;-0.71;95.57;100938.06;5093921;28;20536;-36
2021/12/25 10:18:32;;;;;;;8.82;6.80;;;;;;;-0.60;96.23;100943.13;5092997;28;20024;-36
2021/12/25 10:21:17;;;;;;;8.88;6.28;;;;;;;-0.54;96.60;100945.13;5093766;28;20036;-36
2021/12/25 10:23:43;;;;;;;7.80;6.30;;;;;;;-0.60;96.01;100935.16;5093513;28;20040;-36
2021/12/25 10:26:08;;;;;;;8.73;5.72;;;;;;;-0.66;94.72;100944.56;5092681;28;20028;-37
2021/12/25 10:28:37;;;;;;;7.83;6.33;;;;;;;-0.49;96.02;100944.66;5092692;28;20024;-36
2021/12/25 10:31:16;;;;;;;7.78;5.80;;;;;;;-0.72;95.02;100945.22;5093163;28;20510;-36
2021/12/25 10:33:51;;;;;;;8.80;5.45;;;;;;;-0.74;95.17;100931.22;5096165;28;20061;-36
2021/12/25 10:36:34;;;;;;;9.18;5.75;;;;;;;-0.57;94.65;100946.31;5097691;28;20136;-36
2021/12/25 10:39:08;;;;;;;10.48;5.22;;;;;;;-0.64;94.40;100941.75;5097376;28;20032;-36
2021/12/25 10:41:37;;;;;;;7.35;6.00;;;;;;;-0.70;94.99;100929.94;5096990;28;20039;-36
2021/12/25 10:44:13;;;;;;;6.72;5.10;;;;;;;-0.57;95.19;100935.69;5096945;28;20028;-36
2021/12/25 10:46:56;;;;;;;6.60;5.28;;;;;;;-0.44;95.38;100940.59;5096932;28;20028;-36
2021/12/25 10:49:25;;;;;;;6.25;4.47;;;;;;;-0.47;93.21;100932.91;5096912;28;20190;-36
2021/12/25 10:51:51;;;;;;;7.90;4.55;;;;;;;-0.60;94.13;100932.50;5096498;28;20028;-36
2021/12/25 10:54:18;;;;;;;5.90;4.53;;;;;;;-0.52;94.64;100929.91;5096550;28;20036;-36
2021/12/25 10:56:47;;;;;;;5.68;4.32;;;;;;;-0.60;94.03;100924.53;5096181;28;20483;-36
2021/12/25 10:59:15;;;;;;;6.38;4.30;;;;;;;-0.40;93.23;100944.56;5097034;28;20028;-36
2021/12/25 11:01:47;;;;;;;5.85;4.70;;;;;;;-0.59;92.92;100902.28;5096467;28;20028;-36
2021/12/25 11:04:44;;;;;;;6.95;4.15;;;;;;;-0.38;92.20;100937.28;5096378;28;20424;-36
2021/12/25 11:07:15;;;;;;;5.13;3.67;;;;;;;-0.36;93.00;100935.28;5034480;28;20076;-36
2021/12/25 11:10:01;;;;;;;5.40;3.53;;;;;;;-0.30;92.83;100937.31;5033763;28;20052;-36
2021/12/25 11:12:26;;;;;;;5.50;3.95;;;;;;;-0.39;90.96;100930.31;5034238;28;20033;-36
2021/12/25 11:15:07;;;;;;;4.30;3.23;;;;;;;-0.23;92.44;100926.06;5034459;28;20037;-36
2021/12/25 11:17:34;;;;;;;4.22;3.30;;;;;;;-0.31;92.01;100925.03;5033804;28;20473;-36
2021/12/25 11:20:01;;;;;;;6.53;3.65;;;;;;;-0.18;92.09;100913.97;5017832;28;20374;-36
2021/12/25 11:22:48;;;;;;;5.90;3.55;;;;;;;-0.09;92.49;100910.34;5033374;28;20049;-36
2021/12/25 11:25:15;;;;;;;5.20;3.38;;;;;;;0.15;91.91;100920.25;5034156;28;20041;-36
2021/12/25 11:27:41;;;;;;;6.18;3.33;;;;;;;0.13;89.93;100938.19;5033384;28;20476;-36
2021/12/25 11:30:07;;;;;;;4.17;2.97;;;;;;;0.37;90.96;100939.25;5033618;28;20038;-36
2021/12/25 11:32:33;;;;;;;4.38;2.92;;;;;;;0.35;89.92;100915.50;5033240;28;20272;-36
2021/12/25 11:34:58;;;;;;;5.25;3.15;;;;;;;0.69;90.55;100939.34;5034097;28;20186;-36
2021/12/25 11:37:25;;;;;;;4.20;2.65;;;;;;;0.81;89.78;100937.19;5033396;28;20418;-36
2021/12/25 11:39:53;;;;;;;4.18;2.70;;;;;;;0.91;89.26;100926.38;5033519;28;20036;-36
2021/12/25 11:42:20;;;;;;;3.40;2.35;;;;;;;0.86;88.40;100912.72;5053518;28;20047;-36
2021/12/25 11:44:53;;;;;;;4.20;2.40;;;;;;;0.96;88.03;100918.72;5095157;28;20031;-36
2021/12/25 11:47:56;;;;;;;5.35;3.20;;;;;;;0.85;87.54;100917.22;5095864;28;20115;-36
2021/12/25 11:50:22;;;;;;;2.50;1.60;;;;;;;0.64;85.56;100920.38;5033052;28;20612;-36
2021/12/25 11:53:14;;;;;;;4.07;2.42;;;;;;;0.73;86.62;100911.41;5033199;28;20079;-36
2021/12/25 11:58:37;;;;;;;2.67;2.08;;;;;;;0.79;85.21;100917.06;5032896;28;20122;-36
2021/12/25 12:01:18;;;;;;;3.70;2.03;;;;;;;0.69;85.20;100915.38;5033380;28;20115;-36
2021/12/25 12:03:46;;;;;;;3.83;2.30;;;;;;;0.47;84.98;100911.50;5032946;28;20092;-36
2021/12/25 12:06:14;;;;;;;3.60;1.98;;;;;;;0.45;85.55;100884.25;5032909;28;20056;-36
2021/12/25 12:08:55;;;;;;;2.95;1.95;;;;;;;0.69;86.19;100910.06;5032661;28;20037;-36
2021/12/25 12:11:23;;;;;;;3.97;2.00;;;;;;;0.71;84.13;100913.38;5032852;28;20049;-36
2021/12/25 12:14:12;;;;;;;4.47;1.98;;;;;;;0.76;85.25;100912.88;5033129;28;20041;-36
2021/12/25 12:16:40;;;;;;;5.82;1.83;;;;;;;0.68;83.71;100928.84;5032939;28;20072;-36
2021/12/25 12:19:38;;;;;;;2.65;1.60;;;;;;;0.62;84.16;100919.69;5032661;28;20180;-36
2021/12/25 12:27:34;;;;;;;2.83;1.83;;;;;;;0.62;84.42;100917.03;5071664;28;20032;-36
2021/12/25 12:29:59;;;;;;;2.88;2.00;;;;;;;0.53;82.65;100902.03;5095462;28;20376;-36
2021/12/25 12:32:46;;;;;;;2.60;1.50;;;;;;;0.45;83.62;100904.69;5095457;28;20038;-36
2021/12/25 12:35:26;;;;;;;3.38;1.88;;;;;;;0.51;82.62;100894.22;5094930;28;20057;-36
2021/12/25 12:37:51;;;;;;;2.67;1.50;;;;;;;0.56;83.00;100885.75;5094779;28;20386;-36
2021/12/25 12:40:20;;;;;;;2.83;1.37;;;;;;;0.60;82.68;100897.72;5094551;28;20044;-36
2021/12/25 12:42:48;;;;;;;4.63;2.05;;;;;;;0.65;82.17;100894.59;5094418;28;20028;-36
2021/12/25 12:45:35;;;;;;;2.60;1.70;;;;;;;0.54;81.63;100868.28;5094381;28;20035;-36
2021/12/25 12:48:18;;;;;;;3.38;1.48;;;;;;;0.70;82.05;100887.75;5094817;28;20024;-36
2021/12/25 12:50:55;;;;;;;2.45;1.70;;;;;;;0.76;82.28;100881.75;5094820;28;20482;-35